Time;durP1;ratioP1;P1;durP2;ratioP2;P2;SDS_P1;SDS_P2;PMS_P1;PMS_P2;Temp;Humidity;BMP_temperature;BMP_pressure;BME280_temperature;BME280_humidity;BME280_pressure;Samples;Min_cycle;Max_cycle;Signal;HPM_P1;HPM_P2
2024/01/15 00:00:35;;;;;;;;;;;;;;;-2.09;100.00;98958.41;6333191;28;20439;-68
2024/01/15 00:03:36;;;;;;;;;;;;;;;-2.06;100.00;98954.91;6322759;28;19924;-67
2024/01/15 00:06:36;;;;;;;;;;;;;;;-2.09;100.00;98948.19;6322668;28;19928;-67
2024/01/15 00:09:39;;;;;;;;;;;;;;;-1.91;100.00;98957.06;6321240;28;19931;-66
2024/01/15 00:12:40;;;;;;;;;;;;;;;-1.88;100.00;98949.28;6322728;28;19968;-67
2024/01/15 00:15:41;;;;;;;;;;;;;;;-1.79;100.00;98949.91;6322284;28;19928;-68
2024/01/15 00:18:42;;;;;;;;;;;;;;;-1.73;100.00;98942.06;6321333;28;19960;-68
2024/01/15 00:21:43;;;;;;;;;;;;;;;-1.79;100.00;98924.34;6321078;28;19924;-68
2024/01/15 00:24:44;;;;;;;;;;;;;;;-1.73;100.00;98916.50;6321787;28;19924;-67
2024/01/15 00:27:44;;;;;;;;;;;;;;;-1.92;100.00;98909.34;6322870;28;20390;-67
2024/01/15 00:30:45;;;;;;;;;;;;;;;-1.88;100.00;98900.72;6323035;28;19924;-67
2024/01/15 00:33:48;;;;;;;;;;;;;;;-1.82;100.00;98897.97;6322870;28;19924;-67
2024/01/15 00:36:49;;;;;;;;;;;;;;;-1.86;100.00;98910.91;6322519;28;19925;-67
2024/01/15 00:39:52;;;;;;;;;;;;;;;-1.80;100.00;98910.72;6321545;28;20028;-67
2024/01/15 00:42:53;;;;;;;;;;;;;;;-1.75;100.00;98902.91;6322662;28;19983;-67
2024/01/15 00:45:54;;;;;;;;;;;;;;;-1.76;100.00;98907.19;6329132;28;20305;-68
2024/01/15 00:48:55;;;;;;;;;;;;;;;-1.88;100.00;98903.25;6321221;28;20271;-67
2024/01/15 00:51:56;;;;;;;;;;;;;;;-1.72;100.00;98893.44;6322652;28;19931;-67
2024/01/15 00:54:57;;;;;;;;;;;;;;;-1.54;100.00;98884.38;6340944;28;19931;-67
2024/01/15 00:57:57;;;;;;;;;;;;;;;-1.59;100.00;98877.72;6348088;28;19976;-67
2024/01/15 01:00:58;;;;;;;;;;;;;;;-1.67;100.00;98870.28;6347634;28;19931;-67
2024/01/15 01:03:59;;;;;;;;;;;;;;;-1.60;100.00;98860.72;6346245;28;19931;-67
2024/01/15 01:07:00;;;;;;;;;;;;;;;-1.50;100.00;98864.66;6336221;28;19928;-67
2024/01/15 01:10:01;;;;;;;;;;;;;;;-1.35;100.00;98859.06;6332962;28;19928;-68
2024/01/15 01:13:01;;;;;;;;;;;;;;;-1.27;100.00;98861.38;6341783;27;19923;-67
2024/01/15 01:16:03;;;;;;;;;;;;;;;-1.31;100.00;98845.28;6326298;28;19924;-67
2024/01/15 01:19:05;;;;;;;;;;;;;;;-1.27;100.00;98840.91;6341235;28;19924;-67
2024/01/15 01:22:05;;;;;;;;;;;;;;;-1.13;100.00;98841.31;6332565;28;19993;-67
2024/01/15 01:25:07;;;;;;;;;;;;;;;-1.39;100.00;98842.13;6340422;28;20411;-67
2024/01/15 01:28:07;;;;;;;;;;;;;;;-1.26;100.00;98837.44;6341006;28;19924;-67
2024/01/15 01:31:08;;;;;;;;;;;;;;;-1.20;100.00;98836.41;6342817;28;20017;-67
2024/01/15 01:34:09;;;;;;;;;;;;;;;-1.09;100.00;98819.84;6352438;28;19935;-67
2024/01/15 01:37:13;;;;;;;;;;;;;;;-1.17;100.00;98819.25;6343014;28;19924;-67
2024/01/15 01:40:14;;;;;;;;;;;;;;;-1.09;100.00;98811.28;6343910;28;20022;-67
2024/01/15 01:43:14;;;;;;;;;;;;;;;-1.28;100.00;98805.94;6346084;28;19938;-67
2024/01/15 01:46:15;;;;;;;;;;;;;;;-1.36;100.00;98805.38;6340761;28;19924;-67
2024/01/15 01:49:17;;;;;;;;;;;;;;;-1.28;100.00;98798.28;6330981;28;19924;-67
2024/01/15 01:52:17;;;;;;;;;;;;;;;-1.26;100.00;98791.38;6334363;28;19965;-67
2024/01/15 01:55:19;;;;;;;;;;;;;;;-1.23;100.00;98783.63;6343791;28;19968;-67
2024/01/15 01:58:20;;;;;;;;;;;;;;;-1.13;100.00;98772.19;6349875;28;19930;-67
2024/01/15 02:01:21;;;;;;;;;;;;;;;-1.20;100.00;98773.25;6353261;28;20382;-67
2024/01/15 02:04:24;;;;;;;;;;;;;;;-1.11;100.00;98772.97;6348482;27;19951;-67
2024/01/15 02:07:25;;;;;;;;;;;;;;;-1.11;100.00;98784.91;6338736;28;19931;-67
2024/01/15 02:10:26;;;;;;;;;;;;;;;-1.07;100.00;98771.97;6344211;28;19923;-67
2024/01/15 02:13:27;;;;;;;;;;;;;;;-0.97;100.00;98757.09;6343918;28;19928;-68
2024/01/15 02:16:28;;;;;;;;;;;;;;;-0.83;100.00;98770.28;6336106;28;19924;-68
2024/01/15 02:19:29;;;;;;;;;;;;;;;-0.76;100.00;98759.81;6341068;28;20344;-67
2024/01/15 02:22:30;;;;;;;;;;;;;;;-0.90;100.00;98750.91;6337904;28;19924;-67
2024/01/15 02:25:30;;;;;;;;;;;;;;;-0.81;100.00;98755.69;6346856;27;19924;-68
2024/01/15 02:28:32;;;;;;;;;;;;;;;-0.70;100.00;98739.09;6346991;27;20281;-67
2024/01/15 02:31:33;;;;;;;;;;;;;;;-0.64;100.00;98744.00;6329238;27;19959;-67
2024/01/15 02:34:34;;;;;;;;;;;;;;;-0.59;100.00;98742.13;6324652;28;19924;-68
2024/01/15 02:37:35;;;;;;;;;;;;;;;-0.60;100.00;98732.75;6325258;28;20024;-67
2024/01/15 02:40:36;;;;;;;;;;;;;;;-0.58;100.00;98723.28;6323633;28;20049;-68
2024/01/15 02:43:37;;;;;;;;;;;;;;;-0.49;100.00;98715.28;6321958;28;19928;-67
2024/01/15 02:46:38;;;;;;;;;;;;;;;-0.57;100.00;98717.28;6339674;28;19924;-67
2024/01/15 02:49:39;;;;;;;;;;;;;;;-0.51;100.00;98711.09;6330990;28;19931;-67
2024/01/15 02:52:41;;;;;;;;;;;;;;;-0.58;100.00;98713.03;6333295;28;20002;-67
2024/01/15 02:55:42;;;;;;;;;;;;;;;-0.46;100.00;98689.50;6322667;28;20294;-68
2024/01/15 02:58:43;;;;;;;;;;;;;;;-0.47;100.00;98700.66;6322876;28;19977;-68
2024/01/15 03:01:44;;;;;;;;;;;;;;;-0.35;100.00;98683.16;6328211;27;20046;-68
2024/01/15 03:04:45;;;;;;;;;;;;;;;-0.42;100.00;98673.13;6329644;28;20404;-67
2024/01/15 03:07:45;;;;;;;;;;;;;;;-0.40;100.00;98670.50;6357384;27;20409;-68
2024/01/15 03:10:46;;;;;;;;;;;;;;;-0.38;100.00;98666.16;6324473;28;19924;-67
2024/01/15 03:13:47;;;;;;;;;;;;;;;-0.15;100.00;98664.44;6339286;28;19924;-67
2024/01/15 03:16:47;;;;;;;;;;;;;;;-0.13;100.00;98658.34;6333520;28;19982;-67
2024/01/15 03:19:49;;;;;;;;;;;;;;;-0.02;100.00;98651.06;6324397;28;19931;-67
2024/01/15 03:22:50;;;;;;;;;;;;;;;-0.02;100.00;98645.94;6326019;28;19970;-67
2024/01/15 03:25:51;;;;;;;;;;;;;;;0.06;100.00;98648.19;6329248;28;19924;-67
2024/01/15 03:28:52;;;;;;;;;;;;;;;0.11;100.00;98648.00;6321175;27;19932;-67
2024/01/15 03:31:53;;;;;;;;;;;;;;;0.03;100.00;98634.66;6323450;28;19939;-67
2024/01/15 03:34:53;;;;;;;;;;;;;;;0.07;100.00;98633.66;6338756;28;19977;-67
2024/01/15 03:37:54;;;;;;;;;;;;;;;0.06;100.00;98631.97;6329447;28;20026;-68
2024/01/15 03:40:55;;;;;;;;;;;;;;;0.11;100.00;98624.94;6345804;28;19977;-68
2024/01/15 03:43:56;;;;;;;;;;;;;;;0.12;100.00;98634.28;6342174;27;19924;-67
2024/01/15 03:46:58;;;;;;;;;;;;;;;0.07;100.00;98629.34;6338805;28;20025;-67
2024/01/15 03:49:58;;;;;;;;;;;;;;;0.17;100.00;98622.13;6347140;28;19931;-68
2024/01/15 03:52:59;;;;;;;;;;;;;;;0.31;100.00;98609.53;6336908;27;20013;-67
2024/01/15 03:55:59;;;;;;;;;;;;;;;0.42;100.00;98595.41;6342170;27;20026;-68
2024/01/15 03:59:00;;;;;;;;;;;;;;;0.43;100.00;98604.78;6354032;27;19935;-68
2024/01/15 04:02:01;;;;;;;;;;;;;;;0.42;100.00;98598.81;6346781;27;20316;-67
2024/01/15 04:05:02;;;;;;;;;;;;;;;0.35;100.00;98594.81;6340715;27;19977;-68
2024/01/15 04:08:03;;;;;;;;;;;;;;;0.37;100.00;98591.31;6346113;28;19931;-68
2024/01/15 04:11:04;;;;;;;;;;;;;;;0.49;100.00;98587.38;6335910;27;19924;-68
2024/01/15 04:14:05;;;;;;;;;;;;;;;0.54;100.00;98576.94;6347453;28;19931;-68
2024/01/15 04:17:05;;;;;;;;;;;;;;;0.63;100.00;98566.25;6362060;27;19923;-68
2024/01/15 04:20:06;;;;;;;;;;;;;;;0.52;100.00;98569.28;6360474;27;20010;-67
2024/01/15 04:23:07;;;;;;;;;;;;;;;0.57;100.00;98562.19;6341578;27;20277;-67
2024/01/15 04:26:08;;;;;;;;;;;;;;;0.53;100.00;98563.25;6342290;27;20022;-67
2024/01/15 04:29:09;;;;;;;;;;;;;;;0.51;100.00;98547.06;6338188;27;19985;-68
2024/01/15 04:32:10;;;;;;;;;;;;;;;0.49;100.00;98540.34;6346945;28;20370;-68
2024/01/15 04:35:12;;;;;;;;;;;;;;;0.56;100.00;98542.59;6343593;28;19924;-67
2024/01/15 04:38:13;;;;;;;;;;;;;;;0.62;100.00;98531.22;6321504;28;19938;-67
2024/01/15 04:41:15;;;;;;;;;;;;;;;0.60;100.00;98540.72;6343839;28;20026;-68
2024/01/15 04:44:15;;;;;;;;;;;;;;;0.62;100.00;98532.94;6343007;28;19923;-67
2024/01/15 04:47:19;;;;;;;;;;;;;;;0.51;100.00;98530.84;6344915;28;19947;-67
2024/01/15 04:50:19;;;;;;;;;;;;;;;0.42;100.00;98513.31;6363768;27;20401;-68
2024/01/15 04:53:20;;;;;;;;;;;;;;;0.54;100.00;98525.59;6346522;28;19976;-67
2024/01/15 04:56:21;;;;;;;;;;;;;;;0.59;100.00;98518.50;6340105;27;19936;-68
2024/01/15 04:59:22;;;;;;;;;;;;;;;0.71;100.00;98523.09;6346659;28;20507;-67
2024/01/15 05:02:22;;;;;;;;;;;;;;;0.71;100.00;98528.22;6329857;28;20010;-67
2024/01/15 05:05:23;;;;;;;;;;;;;;;0.63;100.00;98506.38;6322099;28;20416;-68
2024/01/15 05:08:24;;;;;;;;;;;;;;;0.56;100.00;98508.41;6322071;28;19928;-67
2024/01/15 05:11:25;;;;;;;;;;;;;;;0.68;100.00;98514.69;6327744;27;20373;-67
2024/01/15 05:14:26;;;;;;;;;;;;;;;0.67;100.00;98500.19;6343460;28;19969;-68
2024/01/15 05:17:26;;;;;;;;;;;;;;;0.66;100.00;98498.53;6334813;28;20353;-67
2024/01/15 05:20:27;;;;;;;;;;;;;;;0.63;100.00;98502.06;6321206;28;19927;-68
2024/01/15 05:23:28;;;;;;;;;;;;;;;0.81;100.00;98500.41;6322453;28;19931;-68
2024/01/15 05:26:29;;;;;;;;;;;;;;;0.64;100.00;98488.34;6322761;28;19932;-67
2024/01/15 05:29:29;;;;;;;;;;;;;;;0.75;100.00;98498.94;6343896;28;19931;-67
2024/01/15 05:32:30;;;;;;;;;;;;;;;0.70;100.00;98500.03;6344952;28;20180;-68
2024/01/15 05:35:30;;;;;;;;;;;;;;;0.77;100.00;98492.00;6345069;28;20357;-67
2024/01/15 05:38:31;;;;;;;;;;;;;;;0.84;100.00;98497.69;6345917;28;19927;-67
2024/01/15 05:41:32;;;;;;;;;;;;;;;0.83;100.00;98487.50;6344899;28;20373;-67
2024/01/15 05:44:33;;;;;;;;;;;;;;;0.72;100.00;98482.84;6343915;28;19924;-67
2024/01/15 05:47:34;;;;;;;;;;;;;;;0.82;100.00;98481.50;6344327;28;19930;-67
2024/01/15 05:50:35;;;;;;;;;;;;;;;0.87;100.00;98476.19;6339982;28;19924;-67
2024/01/15 05:53:35;;;;;;;;;;;;;;;0.95;100.00;98463.81;6345855;28;19969;-67
2024/01/15 05:56:36;;;;;;;;;;;;;;;0.91;100.00;98462.31;6331602;28;19928;-67
2024/01/15 05:59:37;;;;;;;;;;;;;;;0.81;100.00;98456.75;6336357;28;20393;-69
2024/01/15 06:02:38;;;;;;;;;;;;;;;0.92;100.00;98456.25;6348649;28;19924;-68
2024/01/15 06:05:41;;;;;;;;;;;;;;;0.89;100.00;98467.50;6350342;28;19928;-68
2024/01/15 06:08:44;;;;;;;;;;;;;;;0.87;100.00;98479.56;6350401;28;19928;-68
2024/01/15 06:11:46;;;;;;;;;;;;;;;0.77;100.00;98475.78;6350520;28;19924;-68
2024/01/15 06:14:46;;;;;;;;;;;;;;;0.88;100.00;98486.38;6350637;28;19966;-72
2024/01/15 06:17:47;;;;;;;;;;;;;;;1.02;100.00;98485.72;6350401;28;20347;-73
2024/01/15 06:20:48;;;;;;;;;;;;;;;1.12;100.00;98494.66;6348986;28;19924;-72
2024/01/15 06:23:48;;;;;;;;;;;;;;;1.14;100.00;98495.44;6350366;28;19924;-73
2024/01/15 06:26:50;;;;;;;;;;;;;;;1.18;100.00;98486.66;6350001;28;19924;-73
2024/01/15 06:29:50;;;;;;;;;;;;;;;1.14;100.00;98492.84;6348682;28;19928;-73
2024/01/15 06:32:54;;;;;;;;;;;;;;;1.28;100.00;98493.94;6349764;28;19932;-73
2024/01/15 06:35:56;;;;;;;;;;;;;;;1.28;100.00;98492.22;6348867;28;19986;-73
2024/01/15 06:38:56;;;;;;;;;;;;;;;1.23;100.00;98499.28;6349737;28;19924;-73
2024/01/15 06:41:57;;;;;;;;;;;;;;;1.20;100.00;98502.03;6349985;28;19977;-73
2024/01/15 06:45:01;;;;;;;;;;;;;;;1.20;100.00;98500.28;6348404;28;19977;-73
2024/01/15 06:48:02;;;;;;;;;;;;;;;1.13;100.00;98495.50;6349720;28;19967;-72
2024/01/15 06:51:02;;;;;;;;;;;;;;;1.09;100.00;98492.25;6348160;28;20285;-73
2024/01/15 06:54:03;;;;;;;;;;;;;;;0.95;100.00;98494.63;6348151;28;19934;-73
2024/01/15 06:57:06;;;;;;;;;;;;;;;0.87;100.00;98486.47;6348056;28;19976;-73
2024/01/15 07:00:08;;;;;;;;;;;;;;;1.00;100.00;98483.22;6349159;28;19971;-72
2024/01/15 07:03:09;;;;;;;;;;;;;;;1.00;100.00;98478.09;6348273;28;19924;-73
2024/01/15 07:06:10;;;;;;;;;;;;;;;0.92;100.00;98476.78;6347666;28;19930;-72
2024/01/15 07:09:11;;;;;;;;;;;;;;;1.00;100.00;98482.41;6347866;28;19924;-72
2024/01/15 07:12:16;;;;;;;;;;;;;;;0.92;100.00;98482.75;6348705;28;20076;-72
2024/01/15 07:15:16;;;;;;;;;;;;;;;0.91;100.00;98493.13;6349204;28;19923;-72
2024/01/15 07:18:17;;;;;;;;;;;;;;;1.04;100.00;98498.50;6347589;28;20382;-67
2024/01/15 07:21:19;;;;;;;;;;;;;;;1.20;100.00;98502.84;6348588;28;19924;-67
2024/01/15 07:24:22;;;;;;;;;;;;;;;1.27;100.00;98503.38;6347813;28;19963;-67
2024/01/15 07:27:26;;;;;;;;;;;;;;;1.23;100.00;98504.44;6347323;28;19982;-68
2024/01/15 07:30:26;;;;;;;;;;;;;;;1.29;100.00;98500.75;6348662;28;19928;-68
2024/01/15 07:33:27;;;;;;;;;;;;;;;1.48;100.00;98501.50;6348476;28;20286;-67
2024/01/15 07:36:31;;;;;;;;;;;;;;;1.48;100.00;98493.78;6347357;28;19931;-73
2024/01/15 07:39:32;;;;;;;;;;;;;;;1.59;100.00;98488.16;6348331;28;19924;-73
2024/01/15 07:42:34;;;;;;;;;;;;;;;1.63;100.00;98488.81;6348495;28;19931;-73
2024/01/15 07:45:35;;;;;;;;;;;;;;;1.60;100.00;98495.75;6347051;28;19975;-73
2024/01/15 07:48:36;;;;;;;;;;;;;;;1.65;100.00;98500.69;6348341;28;19969;-72
2024/01/15 07:51:36;;;;;;;;;;;;;;;1.75;100.00;98486.47;6348025;28;19931;-73
2024/01/15 07:54:37;;;;;;;;;;;;;;;1.85;100.00;98483.44;6346999;28;19924;-73
2024/01/15 07:57:38;;;;;;;;;;;;;;;1.76;100.00;98472.69;6347828;28;20018;-72
2024/01/15 08:00:38;;;;;;;;;;;;;;;1.73;100.00;98478.00;6347693;28;19928;-72
2024/01/15 08:03:39;;;;;;;;;;;;;;;1.96;100.00;98481.16;6347892;28;19923;-72
2024/01/15 08:06:40;;;;;;;;;;;;;;;1.78;100.00;98468.31;6347658;28;19928;-73
2024/01/15 08:09:43;;;;;;;;;;;;;;;1.79;100.00;98485.41;6347602;28;19928;-72
2024/01/15 08:12:44;;;;;;;;;;;;;;;1.88;100.00;98478.97;6346360;28;19928;-72
2024/01/15 08:15:45;;;;;;;;;;;;;;;1.89;100.00;98480.63;6347929;27;19924;-72
2024/01/15 08:18:46;;;;;;;;;;;;;;;1.79;100.00;98479.41;6347431;28;19924;-72
2024/01/15 08:21:47;;;;;;;;;;;;;;;1.93;100.00;98489.03;6346608;28;19931;-73
2024/01/15 08:24:48;;;;;;;;;;;;;;;1.94;100.00;98491.53;6345985;28;19975;-73
2024/01/15 08:27:49;;;;;;;;;;;;;;;1.65;100.00;98487.84;6347085;28;19924;-73
2024/01/15 08:30:49;;;;;;;;;;;;;;;1.65;100.00;98497.28;6345913;28;19931;-73
2024/01/15 08:33:52;;;;;;;;;;;;;;;1.67;100.00;98487.75;6345837;28;19924;-72
2024/01/15 08:36:53;;;;;;;;;;;;;;;1.70;100.00;98493.56;6347014;28;20283;-73
2024/01/15 08:39:55;;;;;;;;;;;;;;;1.72;100.00;98501.22;6346730;28;20305;-73
2024/01/15 08:42:55;;;;;;;;;;;;;;;1.70;100.00;98495.31;6345907;28;19924;-73
2024/01/15 08:45:56;;;;;;;;;;;;;;;1.63;100.00;98499.94;6346894;28;19931;-72
2024/01/15 08:48:59;;;;;;;;;;;;;;;1.97;100.00;98486.22;6345372;28;19947;-73
2024/01/15 08:52:00;;;;;;;;;;;;;;;2.17;100.00;98485.19;6345390;28;19931;-73
2024/01/15 08:55:01;;;;;;;;;;;;;;;2.44;100.00;98482.09;6345575;28;19923;-73
2024/01/15 08:58:03;;;;;;;;;;;;;;;2.78;100.00;98478.56;6346643;28;19932;-73
2024/01/15 09:01:04;;;;;;;;;;;;;;;2.95;100.00;98481.97;6346347;28;20011;-73
2024/01/15 09:04:06;;;;;;;;;;;;;;;3.01;100.00;98476.47;6346502;28;19930;-74
2024/01/15 09:07:07;;;;;;;;;;;;;;;3.30;98.95;98459.38;6345306;28;19928;-73
2024/01/15 09:10:08;;;;;;;;;;;;;;;3.09;96.46;98445.09;6345328;28;19976;-73
2024/01/15 09:13:09;;;;;;;;;;;;;;;3.16;91.86;98449.84;6345007;28;20011;-73
2024/01/15 09:16:10;;;;;;;;;;;;;;;2.99;88.13;98450.78;6346546;28;19930;-73
2024/01/15 09:19:11;;;;;;;;;;;;;;;2.85;85.73;98452.47;6344739;28;19934;-73
2024/01/15 09:22:18;;;;;;;;;;;;;;;2.99;84.60;98455.94;6344470;28;19935;-72
2024/01/15 09:25:21;;;;;;;;;;;;;;;3.31;81.20;98457.63;6346104;28;20285;-73
2024/01/15 09:28:23;;;;;;;;;;;;;;;3.63;77.82;98453.19;6345924;28;20385;-73
2024/01/15 09:31:23;;;;;;;;;;;;;;;3.73;74.33;98461.25;6346445;28;19924;-73
2024/01/15 09:34:25;;;;;;;;;;;;;;;4.10;72.86;98470.22;6346535;28;19924;-73
2024/01/15 09:37:25;;;;;;;;;;;;;;;4.10;72.43;98465.06;6351332;28;19924;-73
2024/01/15 09:40:29;;;;;;;;;;;;;;;4.19;69.43;98467.06;6349761;28;19923;-73
2024/01/15 09:43:30;;;;;;;;;;;;;;;4.14;68.85;98465.69;6350244;28;19931;-73
2024/01/15 09:46:34;;;;;;;;;;;;;;;4.56;67.90;98467.41;6349862;28;20368;-73
2024/01/15 09:49:35;;;;;;;;;;;;;;;4.56;66.25;98479.50;6351099;28;19924;-73
2024/01/15 09:52:36;;;;;;;;;;;;;;;4.17;65.92;98488.75;6349664;28;19984;-73
2024/01/15 09:55:40;;;;;;;;;;;;;;;4.12;65.70;98485.59;6351161;28;19971;-73
2024/01/15 09:58:42;;;;;;;;;;;;;;;3.96;66.03;98496.84;6349471;28;20022;-73
2024/01/15 10:01:48;;;;;;;;;;;;;;;3.65;65.62;98492.63;6349775;28;19931;-73
2024/01/15 10:04:48;;;;;;;;;;;;;;;3.68;65.90;98482.13;6349679;28;19924;-73
2024/01/15 10:07:50;;;;;;;;;;;;;;;3.68;65.38;98468.41;6349457;28;19943;-73
2024/01/15 10:10:51;;;;;;;;;;;;;;;3.57;66.00;98469.84;6350517;28;20394;-73
2024/01/15 10:13:53;;;;;;;;;;;;;;;3.77;65.80;98471.28;6350380;28;19931;-72
2024/01/15 10:16:55;;;;;;;;;;;;;;;3.75;65.40;98467.97;6350574;28;19931;-73
2024/01/15 10:19:56;;;;;;;;;;;;;;;3.72;65.62;98481.03;6350186;28;20289;-73
2024/01/15 10:22:57;;;;;;;;;;;;;;;3.70;65.73;98472.53;6348753;28;19924;-73
2024/01/15 10:25:57;;;;;;;;;;;;;;;3.92;65.20;98466.16;6350257;28;19924;-73
2024/01/15 10:29:00;;;;;;;;;;;;;;;4.02;64.15;98449.19;6349968;28;20385;-73
2024/01/15 10:32:06;;;;;;;;;;;;;;;3.97;64.69;98443.47;6350073;28;19924;-73
2024/01/15 10:35:07;;;;;;;;;;;;;;;4.03;63.64;98437.94;6350145;28;19923;-73
2024/01/15 10:38:08;;;;;;;;;;;;;;;4.06;63.93;98431.75;6350255;28;19924;-73
2024/01/15 10:41:09;;;;;;;;;;;;;;;3.91;63.52;98442.09;6349649;28;19930;-73
2024/01/15 10:44:10;;;;;;;;;;;;;;;4.26;63.98;98438.31;6349358;28;19924;-73
2024/01/15 10:47:14;;;;;;;;;;;;;;;4.27;65.04;98427.06;6348077;28;20394;-73
2024/01/15 10:50:15;;;;;;;;;;;;;;;4.04;64.43;98435.28;6348399;28;19950;-73
2024/01/15 10:53:16;;;;;;;;;;;;;;;4.01;65.01;98430.28;6348408;28;20385;-73
2024/01/15 10:56:17;;;;;;;;;;;;;;;3.72;65.48;98429.44;6348556;28;19971;-73
2024/01/15 10:59:19;;;;;;;;;;;;;;;3.98;65.89;98422.75;6348254;28;19927;-72
2024/01/15 11:02:21;;;;;;;;;;;;;;;4.16;65.03;98430.28;6349054;28;20301;-73
2024/01/15 11:05:24;;;;;;;;;;;;;;;3.95;65.08;98428.06;6347576;28;20007;-73
2024/01/15 11:08:26;;;;;;;;;;;;;;;3.82;65.78;98422.81;6349044;28;19974;-73
2024/01/15 11:11:26;;;;;;;;;;;;;;;3.66;66.06;98434.94;6348045;28;19923;-73
2024/01/15 11:14:34;;;;;;;;;;;;;;;3.71;66.30;98461.31;6347614;28;19931;-73
2024/01/15 11:17:53;;;;;;;;;;;;;;;3.88;66.42;98457.75;6322777;28;19930;-73
2024/01/15 11:21:13;;;;;;;;;;;;;;;3.98;66.10;98439.97;6322412;28;19924;-73
2024/01/15 11:24:37;;;;;;;;;;;;;;;3.75;66.70;98439.59;6323665;28;19924;-73
2024/01/15 11:27:41;;;;;;;;;;;;;;;3.70;66.33;98435.59;6322747;28;19924;-68
2024/01/15 11:30:42;;;;;;;;;;;;;;;3.70;66.94;98420.97;6322268;28;20348;-68
2024/01/15 11:33:48;;;;;;;;;;;;;;;3.72;67.16;98421.69;6341532;28;19927;-68
2024/01/15 11:36:49;;;;;;;;;;;;;;;3.74;67.52;98434.50;6347696;28;19924;-68
2024/01/15 11:39:54;;;;;;;;;;;;;;;3.67;67.64;98430.66;6348829;28;20259;-68
2024/01/15 11:42:57;;;;;;;;;;;;;;;3.72;67.11;98413.97;6347221;28;19931;-68
2024/01/15 11:46:04;;;;;;;;;;;;;;;3.83;67.51;98405.59;6348580;28;19931;-69
2024/01/15 11:49:07;;;;;;;;;;;;;;;3.71;67.82;98409.72;6348337;28;20016;-68
2024/01/15 11:52:10;;;;;;;;;;;;;;;3.94;67.12;98400.63;6346980;28;19924;-67
2024/01/15 11:55:11;;;;;;;;;;;;;;;4.00;66.87;98407.16;6347053;28;19927;-68
2024/01/15 11:58:13;;;;;;;;;;;;;;;4.02;66.45;98403.56;6347043;28;19932;-68
2024/01/15 12:01:14;;;;;;;;;;;;;;;3.82;65.24;98411.66;6346872;28;19930;-68
2024/01/15 12:04:17;;;;;;;;;;;;;;;3.92;65.20;98424.88;6347674;28;20279;-69
2024/01/15 12:07:20;;;;;;;;;;;;;;;3.89;65.39;98425.88;6347785;28;19924;-68
2024/01/15 12:10:21;;;;;;;;;;;;;;;3.76;65.48;98406.88;6346469;28;19923;-68
2024/01/15 12:13:22;;;;;;;;;;;;;;;4.01;65.13;98412.22;6346612;28;19923;-68
2024/01/15 12:16:23;;;;;;;;;;;;;;;3.82;64.97;98416.84;6346322;28;19934;-68
2024/01/15 12:19:24;;;;;;;;;;;;;;;3.98;64.84;98409.84;6347711;28;19934;-68
2024/01/15 12:22:26;;;;;;;;;;;;;;;3.94;64.71;98410.13;6347250;28;19923;-68
2024/01/15 12:25:27;;;;;;;;;;;;;;;3.99;64.12;98396.00;6347552;28;19923;-69
2024/01/15 12:28:28;;;;;;;;;;;;;;;3.56;64.06;98402.88;6346278;28;19932;-68
2024/01/15 12:31:29;;;;;;;;;;;;;;;3.48;64.70;98399.91;6345925;28;20006;-68
2024/01/15 12:34:31;;;;;;;;;;;;;;;3.45;65.22;98382.06;6345909;28;19930;-67
2024/01/15 12:37:32;;;;;;;;;;;;;;;3.75;64.66;98389.75;6347155;28;20304;-68
2024/01/15 12:40:34;;;;;;;;;;;;;;;4.04;63.74;98377.66;6347209;28;19928;-68
2024/01/15 12:43:34;;;;;;;;;;;;;;;4.24;62.98;98372.13;6346831;28;19924;-68
2024/01/15 12:46:35;;;;;;;;;;;;;;;4.54;62.48;98367.72;6345989;28;19927;-67
2024/01/15 12:49:39;;;;;;;;;;;;;;;4.52;61.91;98377.31;6346790;28;19977;-69
2024/01/15 12:52:41;;;;;;;;;;;;;;;4.09;62.88;98372.22;6346966;28;20362;-68
2024/01/15 12:55:41;;;;;;;;;;;;;;;4.21;63.78;98377.44;6346759;28;19924;-69
2024/01/15 12:58:45;;;;;;;;;;;;;;;3.94;63.70;98372.22;6345460;28;20010;-68
2024/01/15 13:01:48;;;;;;;;;;;;;;;4.06;64.61;98373.25;6346952;28;19931;-67
2024/01/15 13:04:50;;;;;;;;;;;;;;;3.85;64.78;98372.81;6346503;28;19971;-67
2024/01/15 13:07:50;;;;;;;;;;;;;;;3.91;64.80;98372.44;6345033;28;19972;-71
2024/01/15 13:10:55;;;;;;;;;;;;;;;4.07;65.14;98367.13;6346619;28;20387;-68
2024/01/15 13:13:57;;;;;;;;;;;;;;;4.13;65.03;98365.94;6346448;28;19993;-72
2024/01/15 13:17:00;;;;;;;;;;;;;;;3.90;64.91;98357.84;6346603;28;20426;-73
2024/01/15 13:20:02;;;;;;;;;;;;;;;4.10;65.05;98348.06;6347085;28;19931;-73
2024/01/15 13:23:03;;;;;;;;;;;;;;;4.21;64.56;98346.47;6346159;28;19923;-73
2024/01/15 13:26:05;;;;;;;;;;;;;;;3.95;64.47;98363.56;6345456;28;19930;-73
2024/01/15 13:29:06;;;;;;;;;;;;;;;4.03;64.46;98360.50;6344958;28;19924;-68
2024/01/15 13:32:11;;;;;;;;;;;;;;;4.02;63.99;98361.44;6345016;28;20443;-75
2024/01/15 13:35:13;;;;;;;;;;;;;;;4.06;63.71;98359.47;6345228;28;19924;-73
2024/01/15 13:38:16;;;;;;;;;;;;;;;4.12;63.45;98377.19;6345256;28;20019;-73
2024/01/15 13:41:18;;;;;;;;;;;;;;;4.02;63.26;98371.78;6345151;28;20370;-73
2024/01/15 13:44:22;;;;;;;;;;;;;;;3.81;63.68;98381.66;6346161;28;19931;-73
2024/01/15 13:47:23;;;;;;;;;;;;;;;3.77;64.35;98390.50;6344969;28;20012;-73
2024/01/15 13:50:24;;;;;;;;;;;;;;;3.84;64.51;98379.69;6345843;28;20450;-68
2024/01/15 13:53:26;;;;;;;;;;;;;;;3.74;65.07;98382.91;6346163;28;19927;-67
2024/01/15 13:56:31;;;;;;;;;;;;;;;3.45;65.63;98390.63;6346033;28;19924;-73
2024/01/15 13:59:32;;;;;;;;;;;;;;;3.35;66.32;98390.31;6344664;28;19924;-73
2024/01/15 14:02:33;;;;;;;;;;;;;;;3.27;66.88;98395.09;6344774;28;20336;-73
2024/01/15 14:05:33;;;;;;;;;;;;;;;3.18;67.38;98390.47;6345983;28;19924;-73
2024/01/15 14:08:35;;;;;;;;;;;;;;;3.10;66.75;98392.66;6344592;28;20014;-73
2024/01/15 14:11:37;;;;;;;;;;;;;;;2.89;67.63;98384.41;6345786;28;19924;-73
2024/01/15 14:14:40;;;;;;;;;;;;;;;2.83;67.47;98372.69;6345639;28;19931;-73
2024/01/15 14:17:41;;;;;;;;;;;;;;;2.78;68.05;98364.38;6344423;28;19924;-72
2024/01/15 14:20:42;;;;;;;;;;;;;;;2.81;68.26;98348.75;6347608;28;19931;-72
2024/01/15 14:23:43;;;;;;;;;;;;;;;2.66;69.17;98341.88;6350261;28;19941;-73
2024/01/15 14:26:43;;;;;;;;;;;;;;;2.41;70.59;98348.41;6350404;28;20392;-73
2024/01/15 14:29:46;;;;;;;;;;;;;;;2.28;72.57;98344.84;6348870;28;19973;-72
2024/01/15 14:32:47;;;;;;;;;;;;;;;2.24;74.45;98341.59;6349061;28;20339;-72
2024/01/15 14:35:47;;;;;;;;;;;;;;;2.27;76.80;98336.28;6348590;28;19924;-73
2024/01/15 14:38:48;;;;;;;;;;;;;;;2.25;79.19;98330.41;6348907;28;20010;-72
2024/01/15 14:41:49;;;;;;;;;;;;;;;2.07;82.38;98324.50;6350165;28;19924;-72
2024/01/15 14:44:50;;;;;;;;;;;;;;;1.98;85.09;98325.81;6349690;28;19924;-72
2024/01/15 14:47:51;;;;;;;;;;;;;;;2.02;86.18;98334.22;6348516;28;20046;-72
2024/01/15 14:50:51;;;;;;;;;;;;;;;1.82;89.19;98332.69;6348452;28;20455;-73
2024/01/15 14:53:52;;;;;;;;;;;;;;;1.78;91.56;98328.63;6349696;28;19924;-69
2024/01/15 14:56:53;;;;;;;;;;;;;;;1.75;92.74;98329.63;6349648;28;19934;-68
2024/01/15 14:59:54;;;;;;;;;;;;;;;1.74;93.20;98327.13;6349798;28;19935;-68
2024/01/15 15:02:54;;;;;;;;;;;;;;;1.51;94.84;98325.75;6349346;28;19931;-68
2024/01/15 15:05:55;;;;;;;;;;;;;;;1.37;97.01;98327.28;6344827;28;20014;-69
2024/01/15 15:08:59;;;;;;;;;;;;;;;1.38;97.22;98321.25;6338341;28;19943;-68
2024/01/15 15:12:00;;;;;;;;;;;;;;;1.40;97.04;98316.84;6331333;28;19985;-67
2024/01/15 15:15:00;;;;;;;;;;;;;;;1.50;96.38;98318.94;6338585;28;20366;-73
2024/01/15 15:18:01;;;;;;;;;;;;;;;1.39;96.95;98320.31;6345317;28;19980;-72
2024/01/15 15:21:02;;;;;;;;;;;;;;;1.37;97.57;98318.75;6338578;28;19951;-72
2024/01/15 15:24:03;;;;;;;;;;;;;;;1.23;98.31;98324.56;6347748;28;20028;-73
2024/01/15 15:27:05;;;;;;;;;;;;;;;1.29;99.16;98316.53;6348755;28;19924;-73
2024/01/15 15:30:07;;;;;;;;;;;;;;;1.24;99.55;98315.16;6348596;28;20390;-73
2024/01/15 15:33:07;;;;;;;;;;;;;;;1.28;99.96;98321.78;6348547;28;20283;-72
2024/01/15 15:36:08;;;;;;;;;;;;;;;1.24;100.00;98345.97;6348654;28;19924;-72
2024/01/15 15:39:09;;;;;;;;;;;;;;;1.34;99.88;98348.00;6348885;28;19924;-72
2024/01/15 15:42:10;;;;;;;;;;;;;;;1.39;99.33;98361.44;6347375;28;19930;-67
2024/01/15 15:45:12;;;;;;;;;;;;;;;1.40;99.67;98375.97;6333959;28;19925;-68